createdAt,value
2022-07-29T00:01:48.340Z,98107.41
2022-07-29T00:04:18.051Z,98107.03
2022-07-29T00:06:48.192Z,98094.56
2022-07-29T00:09:18.564Z,98101.03
2022-07-29T00:11:47.539Z,98095.00
2022-07-29T00:14:16.915Z,98092.53
2022-07-29T00:16:46.211Z,98092.75
2022-07-29T00:19:15.229Z,98085.09
2022-07-29T00:21:44.217Z,98075.56
2022-07-29T00:24:13.623Z,98076.84
2022-07-29T00:26:44.167Z,98072.47
2022-07-29T00:32:02.426Z,98068.56
2022-07-29T00:34:48.847Z,98064.44
2022-07-29T00:37:17.940Z,98066.28
2022-07-29T00:39:46.812Z,98069.00
2022-07-29T00:42:17.429Z,98069.00
2022-07-29T00:44:46.664Z,98066.28
2022-07-29T00:47:15.732Z,98072.75
2022-07-29T00:49:45.221Z,98060.09
2022-07-29T00:52:17.205Z,98067.34
2022-07-29T00:54:46.904Z,98067.34
2022-07-29T00:57:17.390Z,98065.72
2022-07-29T00:59:46.427Z,98065.72
2022-07-29T01:02:15.689Z,98071.09
2022-07-29T01:04:47.908Z,98069.44
2022-07-29T01:07:18.655Z,98065.72
2022-07-29T01:09:49.358Z,98067.56
2022-07-29T01:12:25.059Z,98063.22
2022-07-29T01:14:56.164Z,98060.75
2022-07-29T01:17:32.770Z,98071.53
2022-07-29T01:20:11.495Z,98082.31
2022-07-29T01:23:41.673Z,98096.59
2022-07-29T01:26:49.051Z,98081.25
2022-07-29T01:29:35.994Z,98078.09
2022-07-29T01:32:28.051Z,98089.25
2022-07-29T01:35:06.617Z,98080.56
2022-07-29T01:37:45.360Z,98069.19
2022-07-29T01:40:24.269Z,98070.25
2022-07-29T01:42:58.352Z,98070.66
2022-07-29T01:45:40.824Z,98071.31
2022-07-29T01:48:21.996Z,98065.31
2022-07-29T01:51:00.686Z,98078.38
2022-07-29T01:53:38.372Z,98071.78
2022-07-29T01:56:12.324Z,98071.34
2022-07-29T01:58:45.418Z,98065.75
2022-07-29T02:01:18.323Z,98068.47
2022-07-29T02:03:50.158Z,98063.72
2022-07-29T02:06:25.436Z,98063.72
2022-07-29T02:08:55.841Z,98065.00
2022-07-29T02:11:25.003Z,98054.66
2022-07-29T02:13:59.194Z,98065.84
2022-07-29T02:16:34.102Z,98061.72
2022-07-29T02:19:06.710Z,98059.25
2022-07-29T02:21:38.133Z,98059.91
2022-07-29T02:24:09.293Z,98054.31
2022-07-29T02:26:41.644Z,98071.75
2022-07-29T02:29:14.046Z,98063.25
2022-07-29T02:31:48.045Z,98054.78
2022-07-29T02:34:20.269Z,98051.69
2022-07-29T02:36:50.610Z,98057.28
2022-07-29T02:39:21.200Z,98053.38
2022-07-29T02:41:54.431Z,98056.69
2022-07-29T02:44:32.597Z,98059.81
2022-07-29T02:47:15.781Z,98057.53
2022-07-29T02:49:57.184Z,98058.81
2022-07-29T02:52:33.878Z,98058.38
2022-07-29T02:55:12.205Z,98056.53
2022-07-29T02:57:53.827Z,98057.19
2022-07-29T03:00:29.729Z,98057.22
2022-07-29T03:03:06.193Z,98054.94
2022-07-29T03:05:36.310Z,98057.38
2022-07-29T03:08:12.600Z,98059.91
2022-07-29T03:10:46.675Z,98062.38
2022-07-29T03:13:17.701Z,98064.69
2022-07-29T03:15:48.140Z,98062.63
2022-07-29T03:18:19.150Z,98064.06
2022-07-29T03:20:48.242Z,98064.91
2022-07-29T03:23:22.543Z,98067.38
2022-07-29T03:25:52.746Z,98061.78
2022-07-29T03:28:22.120Z,98067.00
2022-07-29T03:30:51.890Z,98060.38
2022-07-29T03:33:22.196Z,98068.22
2022-07-29T03:35:51.189Z,98061.63
2022-07-29T03:38:20.723Z,98057.06
2022-07-29T03:40:56.245Z,98055.81
2022-07-29T03:43:27.752Z,98064.72
2022-07-29T03:45:59.157Z,98060.75
2022-07-29T03:48:34.969Z,98057.88
2022-07-29T03:51:04.101Z,98066.56
2022-07-29T03:53:33.546Z,98068.81
2022-07-29T03:56:05.110Z,98071.47
2022-07-29T03:58:35.494Z,98073.72
2022-07-29T04:01:04.899Z,98070.84
2022-07-29T04:03:37.069Z,98073.94
2022-07-29T04:06:08.677Z,98077.22
2022-07-29T04:08:37.692Z,98075.75
2022-07-29T04:11:07.904Z,98082.56
2022-07-29T04:13:39.551Z,98074.31
2022-07-29T04:16:08.776Z,98080.69
2022-07-29T04:18:38.962Z,98082.31
2022-07-29T04:21:07.853Z,98082.72
2022-07-29T04:23:36.802Z,98081.69
2022-07-29T04:26:22.982Z,98089.09
2022-07-29T04:28:51.789Z,98089.50
2022-07-29T04:31:25.527Z,98084.53
2022-07-29T04:33:56.163Z,98085.75
2022-07-29T04:36:28.526Z,98083.69
2022-07-29T04:38:58.818Z,98085.75
2022-07-29T04:41:33.260Z,98086.16
2022-07-29T04:44:12.226Z,98090.69
2022-07-29T04:46:41.656Z,98088.00
2022-07-29T04:49:12.031Z,98093.16
2022-07-29T04:51:40.960Z,98092.31
2022-07-29T04:54:10.040Z,98096.91
2022-07-29T04:56:39.052Z,98100.19
2022-07-29T04:59:08.016Z,98094.63
2022-07-29T05:01:37.114Z,98106.00
2022-07-29T05:04:06.249Z,98098.78
2022-07-29T05:06:36.712Z,98106.41
2022-07-29T05:09:05.918Z,98110.56
2022-07-29T05:11:34.797Z,98110.16
2022-07-29T05:14:03.848Z,98101.91
2022-07-29T05:16:32.795Z,98111.41
2022-07-29T05:19:01.869Z,98113.50
2022-07-29T05:21:30.850Z,98109.19
2022-07-29T05:24:01.329Z,98113.94
2022-07-29T05:26:30.356Z,98103.25
2022-07-29T05:28:59.211Z,98106.78
2022-07-29T05:31:28.368Z,98104.09
2022-07-29T05:33:57.385Z,98111.97
2022-07-29T05:36:26.233Z,98105.78
2022-07-29T05:38:55.286Z,98105.81
2022-07-29T05:41:26.589Z,98111.03
2022-07-29T05:43:55.608Z,98110.41
2022-07-29T05:46:24.552Z,98099.25
2022-07-29T05:48:53.576Z,98103.81
2022-07-29T05:51:22.774Z,98100.50
2022-07-29T05:53:51.757Z,98097.38
2022-07-29T05:56:20.694Z,98097.19
2022-07-29T05:58:51.045Z,98097.59
2022-07-29T06:01:20.912Z,98099.22
2022-07-29T06:03:49.979Z,98095.28
2022-07-29T06:06:20.076Z,98095.88
2022-07-29T06:08:49.094Z,98092.50
2022-07-29T06:11:18.106Z,98099.47
2022-07-29T06:13:47.524Z,98094.78
2022-07-29T06:16:29.811Z,98101.97
2022-07-29T06:18:59.337Z,98104.94
2022-07-29T06:21:28.355Z,98106.66
2022-07-29T06:23:57.670Z,98108.81
2022-07-29T06:26:30.274Z,98107.41
2022-07-29T06:29:00.437Z,98103.91
2022-07-29T06:31:30.769Z,98100.50
2022-07-29T06:33:59.721Z,98095.06
2022-07-29T06:36:29.698Z,98100.50
2022-07-29T06:38:59.000Z,98089.72
2022-07-29T06:41:28.281Z,98098.16
2022-07-29T06:43:57.213Z,98099.88
2022-07-29T06:46:26.210Z,98101.66
2022-07-29T06:48:57.748Z,98097.09
2022-07-29T06:51:28.444Z,98091.94
2022-07-29T06:56:38.354Z,98091.25
2022-07-29T06:59:11.856Z,98089.69
2022-07-29T07:01:43.697Z,98092.81
2022-07-29T07:04:15.246Z,98102.34
2022-07-29T07:06:44.975Z,98101.88
2022-07-29T07:09:13.951Z,98093.53
2022-07-29T07:11:42.877Z,98098.97
2022-07-29T07:14:11.809Z,98098.72
2022-07-29T07:16:40.764Z,98087.88
2022-07-29T07:19:09.758Z,98082.84
2022-07-29T07:21:40.108Z,98086.91
2022-07-29T07:24:09.557Z,98086.63
2022-07-29T07:26:40.377Z,98077.19
2022-07-29T07:29:09.277Z,98079.31
2022-07-29T07:31:39.667Z,98080.84
2022-07-29T07:34:08.555Z,98085.78
2022-07-29T07:36:38.900Z,98072.41
2022-07-29T07:39:07.993Z,98075.06
2022-07-29T07:41:37.131Z,98071.13
2022-07-29T07:44:07.021Z,98061.97
2022-07-29T07:46:35.922Z,98063.13
2022-07-29T07:49:07.414Z,98057.47
2022-07-29T07:51:36.374Z,98068.75
2022-07-29T07:54:06.869Z,98059.75
2022-07-29T07:56:36.206Z,98058.44
2022-07-29T07:59:05.326Z,98065.81
2022-07-29T08:01:47.830Z,98066.09
2022-07-29T08:04:27.511Z,98066.34
2022-07-29T08:06:57.826Z,98063.00
2022-07-29T08:09:30.776Z,98060.22
2022-07-29T08:12:03.337Z,98061.34
2022-07-29T08:14:32.521Z,98054.31
2022-07-29T08:17:02.409Z,98057.69
2022-07-29T08:19:31.405Z,98054.66
2022-07-29T08:22:00.392Z,98050.59
2022-07-29T08:24:48.189Z,98049.94
2022-07-29T08:27:41.791Z,98046.06
2022-07-29T08:30:07.614Z,98055.81
2022-07-29T08:32:53.238Z,98054.06
2022-07-29T08:35:24.127Z,98046.44
2022-07-29T08:37:53.427Z,98052.19
2022-07-29T08:40:30.775Z,98047.44
2022-07-29T08:43:08.379Z,98036.56
2022-07-29T08:45:47.448Z,98042.84
2022-07-29T08:48:20.031Z,98043.59
2022-07-29T08:50:54.426Z,98040.84
2022-07-29T08:53:27.383Z,98038.84
2022-07-29T08:55:59.571Z,98038.94
2022-07-29T08:58:36.822Z,98038.72
2022-07-29T09:01:12.222Z,98032.41
2022-07-29T09:03:43.510Z,98035.16
2022-07-29T09:06:15.850Z,98035.09
2022-07-29T09:08:45.794Z,98035.06
2022-07-29T09:11:16.858Z,98036.56
2022-07-29T09:13:45.950Z,98024.97
2022-07-29T09:16:31.673Z,98021.56
2022-07-29T09:19:26.826Z,98020.50
2022-07-29T09:22:02.967Z,98019.25
2022-07-29T09:24:43.236Z,98026.59
2022-07-29T09:27:23.672Z,98021.69
2022-07-29T09:30:01.319Z,98013.53
2022-07-29T09:32:30.901Z,98020.78
2022-07-29T09:35:21.222Z,98016.31
2022-07-29T09:37:51.096Z,98018.69
2022-07-29T09:40:21.924Z,98015.75
2022-07-29T09:42:53.928Z,98010.41
2022-07-29T09:45:31.360Z,98015.50
2022-07-29T09:48:03.927Z,98018.44
2022-07-29T09:50:40.958Z,98009.13
2022-07-29T09:53:11.394Z,98011.81
2022-07-29T09:55:51.866Z,98009.75
2022-07-29T09:58:24.448Z,98016.09
2022-07-29T10:00:55.775Z,98015.72
2022-07-29T10:03:26.930Z,98014.78
2022-07-29T10:06:10.794Z,98012.25
2022-07-29T10:08:40.552Z,98017.56
2022-07-29T10:11:15.840Z,98011.91
2022-07-29T10:13:48.823Z,98008.44
2022-07-29T10:16:19.060Z,98008.44
2022-07-29T10:18:48.293Z,98004.00
2022-07-29T10:21:35.600Z,98008.91
2022-07-29T10:24:14.790Z,98018.28
2022-07-29T10:26:47.062Z,98008.72
2022-07-29T10:29:17.307Z,98013.63
2022-07-29T10:31:59.745Z,98007.06
2022-07-29T10:34:48.747Z,98009.94
2022-07-29T10:37:35.382Z,98001.84
2022-07-29T10:40:37.534Z,97994.38
2022-07-29T10:43:22.610Z,97995.56
2022-07-29T10:45:59.194Z,97988.78
2022-07-29T10:48:28.893Z,97993.66
2022-07-29T10:51:01.516Z,97984.28
2022-07-29T10:53:51.046Z,97985.28
2022-07-29T10:56:28.227Z,97982.47
2022-07-29T10:59:32.402Z,97976.03
2022-07-29T11:02:46.764Z,97968.06
2022-07-29T11:05:20.191Z,97962.31
2022-07-29T11:08:28.208Z,97958.41
2022-07-29T11:11:33.100Z,97950.59
2022-07-29T11:14:04.367Z,97954.13
2022-07-29T11:17:06.073Z,97952.78
2022-07-29T11:19:44.781Z,97957.56
2022-07-29T11:22:34.844Z,97956.13
2022-07-29T11:25:17.895Z,97955.06
2022-07-29T11:27:47.503Z,97949.16
2022-07-29T11:30:17.575Z,97956.34
2022-07-29T11:32:48.621Z,97954.44
2022-07-29T11:35:37.230Z,97940.25
2022-07-29T11:38:28.352Z,97946.38
2022-07-29T11:41:25.183Z,97945.53
2022-07-29T11:43:55.919Z,97934.94
2022-07-29T11:46:46.183Z,97936.00
2022-07-29T11:49:21.872Z,97933.00
2022-07-29T11:51:55.676Z,97935.81
2022-07-29T11:54:28.174Z,97925.97
2022-07-29T11:56:57.457Z,97916.44
2022-07-29T11:59:33.121Z,97915.97
2022-07-29T12:02:33.355Z,97912.38
2022-07-29T12:04:53.960Z,97910.53
2022-07-29T12:07:34.830Z,97915.53
2022-07-29T12:10:06.309Z,97908.19
2022-07-29T12:12:35.919Z,97902.97
2022-07-29T12:15:18.365Z,97902.13
2022-07-29T12:17:50.258Z,97894.41
2022-07-29T12:20:26.781Z,97892.09
2022-07-29T12:22:58.797Z,97880.50
2022-07-29T12:25:35.193Z,97871.31
2022-07-29T12:28:06.643Z,97872.53
2022-07-29T12:30:42.084Z,97866.88
2022-07-29T12:33:20.371Z,97873.72
2022-07-29T12:36:06.232Z,97877.88
2022-07-29T12:38:39.712Z,97891.44
2022-07-29T12:41:09.493Z,97896.25
2022-07-29T12:43:38.633Z,97887.16
2022-07-29T12:46:15.630Z,97892.97
2022-07-29T12:48:47.344Z,97878.41
2022-07-29T12:51:17.825Z,97870.56
2022-07-29T12:54:07.843Z,97860.56
2022-07-29T12:56:45.149Z,97863.34
2022-07-29T12:59:16.410Z,97854.06
2022-07-29T13:01:47.978Z,97859.38
2022-07-29T13:04:27.990Z,97851.31
2022-07-29T13:07:06.456Z,97845.59
2022-07-29T13:09:44.272Z,97840.81
2022-07-29T13:12:15.077Z,97843.47
2022-07-29T13:14:46.340Z,97836.34
2022-07-29T13:17:17.010Z,97844.59
2022-07-29T13:19:48.299Z,97842.09
2022-07-29T13:22:20.387Z,97847.16
2022-07-29T13:24:53.724Z,97851.06
2022-07-29T13:27:25.321Z,97850.63
2022-07-29T13:29:57.499Z,97842.81
2022-07-29T13:32:28.541Z,97844.50
2022-07-29T13:34:58.976Z,97843.19
2022-07-29T13:37:30.689Z,97854.44
2022-07-29T13:40:01.424Z,97843.38
2022-07-29T13:42:30.725Z,97849.44
2022-07-29T13:45:00.230Z,97846.81
2022-07-29T13:47:32.206Z,97843.41
2022-07-29T13:50:02.598Z,97841.53
2022-07-29T13:52:35.479Z,97832.19
2022-07-29T13:55:07.221Z,97835.94
2022-07-29T13:57:36.469Z,97829.84
2022-07-29T14:00:06.668Z,97836.06
2022-07-29T14:02:35.828Z,97845.03
2022-07-29T14:05:08.311Z,97860.13
2022-07-29T14:07:38.046Z,97859.91
2022-07-29T14:10:09.444Z,97849.44
2022-07-29T14:12:38.411Z,97853.66
2022-07-29T14:15:08.583Z,97870.22
2022-07-29T14:17:37.498Z,97870.19
2022-07-29T14:20:08.042Z,97872.03
2022-07-29T14:22:41.825Z,97872.81
2022-07-29T14:25:14.885Z,97868.41
2022-07-29T14:27:45.321Z,97881.63
2022-07-29T14:30:15.443Z,97902.72
2022-07-29T14:32:44.341Z,97920.03
2022-07-29T14:35:13.377Z,97924.84
2022-07-29T14:37:42.319Z,97936.91
2022-07-29T14:40:13.555Z,97949.34
2022-07-29T14:42:42.664Z,97970.84
2022-07-29T14:45:12.523Z,97980.53
2022-07-29T14:47:41.588Z,97988.56
2022-07-29T14:50:11.994Z,98001.53
2022-07-29T14:52:40.965Z,98013.09
2022-07-29T14:55:19.899Z,98019.69
2022-07-29T14:57:50.892Z,98029.22
2022-07-29T15:00:21.626Z,98020.19
2022-07-29T15:03:02.040Z,98025.63
2022-07-29T15:05:32.032Z,98032.06
2022-07-29T15:08:01.515Z,98042.41
2022-07-29T15:10:32.082Z,98032.56
2022-07-29T15:13:01.072Z,98038.56
2022-07-29T15:15:30.479Z,98045.03
2022-07-29T15:17:59.426Z,98057.84
2022-07-29T15:20:28.621Z,98056.44
2022-07-29T15:22:58.178Z,98061.22
2022-07-29T15:25:28.203Z,98059.22
2022-07-29T15:28:01.742Z,98058.78
2022-07-29T15:30:34.391Z,98068.16
2022-07-29T15:33:09.074Z,98072.63
2022-07-29T15:35:40.505Z,98079.63
2022-07-29T15:38:10.447Z,98075.16
2022-07-29T15:40:42.130Z,98073.34
2022-07-29T15:43:12.706Z,98076.72
2022-07-29T15:46:05.295Z,98075.13
2022-07-29T15:48:34.407Z,98079.88
2022-07-29T15:51:03.290Z,98075.91
2022-07-29T15:53:32.497Z,98081.13
2022-07-29T15:56:04.519Z,98091.81
2022-07-29T15:58:34.765Z,98099.00
2022-07-29T16:01:03.841Z,98102.81
2022-07-29T16:03:33.500Z,98109.66
2022-07-29T16:06:02.893Z,98115.19
2022-07-29T16:08:32.125Z,98114.19
2022-07-29T16:11:01.125Z,98119.97
2022-07-29T16:13:30.335Z,98113.22
2022-07-29T16:16:01.984Z,98102.91
2022-07-29T16:18:32.370Z,98096.81
2022-07-29T16:21:01.762Z,98093.19
2022-07-29T16:23:30.619Z,98108.44
2022-07-29T16:26:01.095Z,98105.28
2022-07-29T16:28:31.387Z,98101.75
2022-07-29T16:31:01.766Z,98108.03
2022-07-29T16:33:54.220Z,98108.88
2022-07-29T16:36:21.510Z,98104.53
2022-07-29T16:38:51.011Z,98114.34
2022-07-29T16:41:20.085Z,98108.81
2022-07-29T16:43:53.354Z,98113.53
2022-07-29T16:46:24.299Z,98104.72
2022-07-29T16:48:55.769Z,98111.84
2022-07-29T16:51:26.001Z,98109.88
2022-07-29T16:53:54.912Z,98115.16
2022-07-29T16:56:24.892Z,98122.56
2022-07-29T16:58:54.245Z,98117.25
2022-07-29T17:01:26.899Z,98127.75
2022-07-29T17:04:10.462Z,98123.84
2022-07-29T17:06:41.350Z,98121.59
2022-07-29T17:09:14.927Z,98122.56
2022-07-29T17:11:53.111Z,98125.13
2022-07-29T17:14:41.373Z,98121.69
2022-07-29T17:17:39.329Z,98127.13
2022-07-29T17:20:17.592Z,98123.81
2022-07-29T17:22:46.875Z,98135.31
2022-07-29T17:25:20.335Z,98132.50
2022-07-29T17:27:50.759Z,98141.09
2022-07-29T17:30:20.265Z,98148.00
2022-07-29T17:32:54.788Z,98149.13
2022-07-29T17:35:42.448Z,98149.81
2022-07-29T17:38:15.329Z,98152.63
2022-07-29T17:40:56.910Z,98152.50
2022-07-29T17:43:31.185Z,98155.88
2022-07-29T17:46:03.805Z,98159.03
2022-07-29T17:48:41.392Z,98153.69
2022-07-29T17:51:20.811Z,98159.13
2022-07-29T17:53:54.878Z,98153.59
2022-07-29T17:56:29.703Z,98158.59
2022-07-29T17:59:12.068Z,98154.09
2022-07-29T18:01:41.466Z,98152.53
2022-07-29T18:04:12.427Z,98156.06
2022-07-29T18:06:41.455Z,98145.53
2022-07-29T18:09:10.728Z,98141.44
2022-07-29T18:11:39.596Z,98140.47
2022-07-29T18:14:13.751Z,98136.34
2022-07-29T18:16:53.284Z,98141.59
2022-07-29T18:19:37.339Z,98136.47
2022-07-29T18:22:07.434Z,98139.63
2022-07-29T18:24:42.717Z,98144.84
2022-07-29T18:27:24.460Z,98139.72
2022-07-29T18:30:07.211Z,98138.09
2022-07-29T18:32:37.858Z,98147.31
2022-07-29T18:35:09.455Z,98144.06
2022-07-29T18:38:00.814Z,98145.56
2022-07-29T18:40:28.177Z,98157.88
2022-07-29T18:42:58.832Z,98162.66
2022-07-29T18:45:28.254Z,98174.97
2022-07-29T18:48:04.653Z,98177.88
2022-07-29T18:50:35.202Z,98177.03
2022-07-29T18:53:05.747Z,98177.34
2022-07-29T18:55:34.693Z,98185.88
2022-07-29T18:58:03.735Z,98190.03
2022-07-29T19:00:35.261Z,98197.34
2022-07-29T19:03:04.982Z,98195.94
2022-07-29T19:05:38.061Z,98199.91
2022-07-29T19:08:07.669Z,98200.13
2022-07-29T19:10:46.645Z,98200.41
2022-07-29T19:13:16.167Z,98206.66
2022-07-29T19:15:47.675Z,98210.78
2022-07-29T19:18:16.912Z,98205.19
2022-07-29T19:20:47.329Z,98214.78
2022-07-29T19:23:17.247Z,98215.63
2022-07-29T19:25:53.726Z,98230.59
2022-07-29T19:28:49.758Z,98235.53
2022-07-29T19:32:01.037Z,98239.72
2022-07-29T19:42:48.149Z,98245.59
2022-07-29T19:45:17.123Z,98252.06
2022-07-29T19:47:47.868Z,98250.63
2022-07-29T19:50:17.523Z,98258.72
2022-07-29T19:52:47.585Z,98265.97
2022-07-29T19:55:18.772Z,98263.91
2022-07-29T19:57:48.608Z,98264.31
2022-07-29T20:00:21.098Z,98260.78
2022-07-29T20:02:50.650Z,98275.94
2022-07-29T20:05:19.765Z,98284.03
2022-07-29T20:07:51.287Z,98290.44
2022-07-29T20:10:21.914Z,98285.47
2022-07-29T20:12:51.267Z,98288.00
2022-07-29T20:15:22.827Z,98293.38
2022-07-29T20:17:57.385Z,98298.78
2022-07-29T20:20:29.813Z,98306.66
2022-07-29T20:22:59.238Z,98293.41
2022-07-29T20:25:33.292Z,98298.38
2022-07-29T20:28:03.363Z,98289.25
2022-07-29T20:30:32.746Z,98296.09
2022-07-29T20:33:01.835Z,98293.38
2022-07-29T20:35:30.837Z,98293.81
2022-07-29T20:38:00.424Z,98297.34
2022-07-29T20:40:30.915Z,98301.69
2022-07-29T20:42:59.938Z,98300.25
2022-07-29T20:45:30.779Z,98300.25
2022-07-29T20:48:00.031Z,98301.91
2022-07-29T20:50:29.342Z,98296.50
2022-07-29T20:52:58.368Z,98300.84
2022-07-29T20:55:27.414Z,98291.75
2022-07-29T20:58:02.380Z,98286.78
2022-07-29T21:00:31.310Z,98282.59
2022-07-29T21:03:01.250Z,98281.75
2022-07-29T21:05:30.163Z,98279.28
2022-07-29T21:07:59.587Z,98289.25
2022-07-29T21:10:29.411Z,98285.94
2022-07-29T21:12:59.604Z,98280.13
2022-07-29T21:15:29.784Z,98281.59
2022-07-29T21:18:02.875Z,98271.25
2022-07-29T21:20:32.150Z,98263.16
2022-07-29T21:23:02.958Z,98255.28
2022-07-29T21:25:32.158Z,98251.34
2022-07-29T21:28:19.990Z,98263.16
2022-07-29T21:30:48.918Z,98256.50
2022-07-29T21:33:17.859Z,98250.91
2022-07-29T21:36:15.067Z,98253.38
2022-07-29T21:38:36.575Z,98253.22
2022-07-29T21:41:07.233Z,98260.47
2022-07-29T21:43:37.608Z,98246.97
2022-07-29T21:46:11.204Z,98252.78
2022-07-29T21:48:44.382Z,98262.75
2022-07-29T21:51:13.762Z,98264.00
2022-07-29T21:53:42.835Z,98264.41
2022-07-29T21:56:14.580Z,98264.00
2022-07-29T21:58:45.814Z,98258.22
2022-07-29T22:01:14.969Z,98249.72
2022-07-29T22:03:44.133Z,98254.47
2022-07-29T22:06:17.305Z,98255.31
2022-07-29T22:08:48.086Z,98260.50
2022-07-29T22:11:17.161Z,98260.06
2022-07-29T22:13:50.521Z,98262.97
2022-07-29T22:16:19.586Z,98262.78
2022-07-29T22:18:48.877Z,98266.72
2022-07-29T22:21:18.708Z,98253.28
2022-07-29T22:23:47.757Z,98238.53
2022-07-29T22:26:16.995Z,98243.31
2022-07-29T22:28:46.308Z,98232.56
2022-07-29T22:31:20.749Z,98227.97
2022-07-29T22:33:51.790Z,98232.56
2022-07-29T22:36:20.829Z,98237.53
2022-07-29T22:38:52.237Z,98246.22
2022-07-29T22:41:21.349Z,98252.03
2022-07-29T22:43:52.845Z,98268.19
2022-07-29T22:46:24.109Z,98263.66
2022-07-29T22:48:53.345Z,98260.53
2022-07-29T22:51:24.270Z,98252.88
2022-07-29T22:53:54.008Z,98245.63
2022-07-29T22:56:23.125Z,98241.88
2022-07-29T22:58:53.301Z,98240.66
2022-07-29T23:01:37.513Z,98241.28
2022-07-29T23:04:10.415Z,98228.44
2022-07-29T23:06:39.343Z,98226.78
2022-07-29T23:09:08.233Z,98223.84
2022-07-29T23:11:37.267Z,98242.06
2022-07-29T23:14:06.626Z,98247.88
2022-07-29T23:16:39.925Z,98242.50
2022-07-29T23:19:09.041Z,98237.50
2022-07-29T23:21:40.910Z,98234.59
2022-07-29T23:24:12.626Z,98232.94
2022-07-29T23:26:44.110Z,98235.00
2022-07-29T23:29:13.453Z,98230.03
2022-07-29T23:31:48.320Z,98230.84
2022-07-29T23:34:17.509Z,98228.16
2022-07-29T23:36:46.425Z,98220.09
2022-07-29T23:39:15.561Z,98227.56
2022-07-29T23:41:44.581Z,98224.44
2022-07-29T23:44:13.454Z,98228.38
2022-07-29T23:46:44.505Z,98235.81
2022-07-29T23:49:14.087Z,98232.50
2022-07-29T23:51:45.684Z,98231.06
2022-07-29T23:54:14.906Z,98237.69
2022-07-29T23:56:44.212Z,98235.81
2022-07-29T23:59:15.619Z,98235.19
